sensor_id;sensor_type;location;lat;lon;timestamp;pressure;altitude;pressure_sealevel;temperature;humidity
58967;BME280;44744;51.894;5.080;2023-07-31T00:00:35;101085.53;;;16.32;96.58
58967;BME280;44744;51.894;5.080;2023-07-31T00:01:35;101085.36;;;16.32;96.14
58967;BME280;44744;51.894;5.080;2023-07-31T00:02:35;101086.48;;;16.34;96.91
58967;BME280;44744;51.894;5.080;2023-07-31T00:03:35;101088.81;;;16.34;96.61
58967;BME280;44744;51.894;5.080;2023-07-31T00:04:36;101083.40;;;16.34;96.34
58967;BME280;44744;51.894;5.080;2023-07-31T00:05:37;101080.48;;;16.35;96.05
58967;BME280;44744;51.894;5.080;2023-07-31T00:06:37;101081.48;;;16.36;96.05
58967;BME280;44744;51.894;5.080;2023-07-31T00:07:37;101080.74;;;16.36;95.92
58967;BME280;44744;51.894;5.080;2023-07-31T00:08:37;101082.05;;;16.38;95.94
58967;BME280;44744;51.894;5.080;2023-07-31T00:09:38;101079.39;;;16.38;95.77
58967;BME280;44744;51.894;5.080;2023-07-31T00:10:39;101079.77;;;16.40;96.60
58967;BME280;44744;51.894;5.080;2023-07-31T00:11:39;101077.27;;;16.40;96.32
58967;BME280;44744;51.894;5.080;2023-07-31T00:12:41;101079.27;;;16.40;96.07
58967;BME280;44744;51.894;5.080;2023-07-31T00:13:42;101075.08;;;16.41;96.25
58967;BME280;44744;51.894;5.080;2023-07-31T00:14:42;101072.05;;;16.41;96.15
58967;BME280;44744;51.894;5.080;2023-07-31T00:15:42;101069.48;;;16.42;96.24
58967;BME280;44744;51.894;5.080;2023-07-31T00:16:45;101067.64;;;16.43;96.61
58967;BME280;44744;51.894;5.080;2023-07-31T00:17:45;101069.95;;;16.43;96.45
58967;BME280;44744;51.894;5.080;2023-07-31T00:18:45;101072.09;;;16.43;96.51
58967;BME280;44744;51.894;5.080;2023-07-31T00:19:46;101068.64;;;16.44;96.67
58967;BME280;44744;51.894;5.080;2023-07-31T00:20:46;101068.05;;;16.44;96.63
58967;BME280;44744;51.894;5.080;2023-07-31T00:21:48;101065.46;;;16.43;96.51
58967;BME280;44744;51.894;5.080;2023-07-31T00:22:52;101064.19;;;16.43;96.75
58967;BME280;44744;51.894;5.080;2023-07-31T00:23:52;101064.13;;;16.44;96.94
58967;BME280;44744;51.894;5.080;2023-07-31T00:24:52;101063.60;;;16.44;96.81
58967;BME280;44744;51.894;5.080;2023-07-31T00:25:52;101064.39;;;16.43;96.76
58967;BME280;44744;51.894;5.080;2023-07-31T00:26:53;101060.58;;;16.44;97.36
58967;BME280;44744;51.894;5.080;2023-07-31T00:27:53;101063.52;;;16.42;96.83
58967;BME280;44744;51.894;5.080;2023-07-31T00:28:53;101060.11;;;16.43;96.74
58967;BME280;44744;51.894;5.080;2023-07-31T00:29:53;101060.73;;;16.44;97.10
58967;BME280;44744;51.894;5.080;2023-07-31T00:30:55;101062.02;;;16.44;97.03
58967;BME280;44744;51.894;5.080;2023-07-31T00:31:55;101063.30;;;16.43;96.64
58967;BME280;44744;51.894;5.080;2023-07-31T00:32:56;101062.76;;;16.44;96.47
58967;BME280;44744;51.894;5.080;2023-07-31T00:33:56;101061.91;;;16.43;96.32
58967;BME280;44744;51.894;5.080;2023-07-31T00:34:56;101063.12;;;16.43;96.13
58967;BME280;44744;51.894;5.080;2023-07-31T00:35:57;101064.07;;;16.45;96.81
58967;BME280;44744;51.894;5.080;2023-07-31T00:36:57;101064.96;;;16.45;96.95
58967;BME280;44744;51.894;5.080;2023-07-31T00:37:57;101064.52;;;16.43;96.64
58967;BME280;44744;51.894;5.080;2023-07-31T00:38:58;101065.23;;;16.44;96.68
58967;BME280;44744;51.894;5.080;2023-07-31T00:39:58;101063.62;;;16.43;96.53
58967;BME280;44744;51.894;5.080;2023-07-31T00:40:58;101060.97;;;16.43;96.64
58967;BME280;44744;51.894;5.080;2023-07-31T00:41:59;101060.48;;;16.43;96.57
58967;BME280;44744;51.894;5.080;2023-07-31T00:43:00;101058.73;;;16.42;96.45
58967;BME280;44744;51.894;5.080;2023-07-31T00:44:00;101058.52;;;16.42;96.33
58967;BME280;44744;51.894;5.080;2023-07-31T00:45:00;101056.75;;;16.42;96.47
58967;BME280;44744;51.894;5.080;2023-07-31T00:46:01;101056.39;;;16.43;96.30
58967;BME280;44744;51.894;5.080;2023-07-31T00:47:01;101053.41;;;16.42;96.16
58967;BME280;44744;51.894;5.080;2023-07-31T00:48:02;101053.81;;;16.44;96.89
58967;BME280;44744;51.894;5.080;2023-07-31T00:49:02;101051.69;;;16.44;96.56
58967;BME280;44744;51.894;5.080;2023-07-31T00:50:03;101054.94;;;16.43;96.37
58967;BME280;44744;51.894;5.080;2023-07-31T00:51:03;101052.64;;;16.42;96.32
58967;BME280;44744;51.894;5.080;2023-07-31T00:52:04;101048.68;;;16.43;96.47
58967;BME280;44744;51.894;5.080;2023-07-31T00:53:04;101048.34;;;16.43;96.36
58967;BME280;44744;51.894;5.080;2023-07-31T00:54:04;101049.23;;;16.43;96.27
58967;BME280;44744;51.894;5.080;2023-07-31T00:55:06;101046.19;;;16.43;96.20
58967;BME280;44744;51.894;5.080;2023-07-31T00:56:08;101047.45;;;16.43;96.03
58967;BME280;44744;51.894;5.080;2023-07-31T00:57:08;101049.23;;;16.43;96.22
58967;BME280;44744;51.894;5.080;2023-07-31T00:58:08;101049.56;;;16.43;96.41
58967;BME280;44744;51.894;5.080;2023-07-31T00:59:25;101047.61;;;16.43;96.22
58967;BME280;44744;51.894;5.080;2023-07-31T01:00:25;101046.94;;;16.42;96.08
58967;BME280;44744;51.894;5.080;2023-07-31T01:01:25;101049.22;;;16.43;96.26
58967;BME280;44744;51.894;5.080;2023-07-31T01:02:26;101043.31;;;16.43;96.25
58967;BME280;44744;51.894;5.080;2023-07-31T01:03:27;101048.10;;;16.44;96.14
58967;BME280;44744;51.894;5.080;2023-07-31T01:04:30;101046.83;;;16.44;96.32
58967;BME280;44744;51.894;5.080;2023-07-31T01:06:59;101048.98;;;16.44;96.00
58967;BME280;44744;51.894;5.080;2023-07-31T01:08:04;101049.86;;;16.44;96.00
58967;BME280;44744;51.894;5.080;2023-07-31T01:09:11;101050.50;;;16.45;96.04
58967;BME280;44744;51.894;5.080;2023-07-31T01:10:22;101055.02;;;16.44;95.91
58967;BME280;44744;51.894;5.080;2023-07-31T01:11:27;101051.58;;;16.45;95.97
58967;BME280;44744;51.894;5.080;2023-07-31T01:12:48;101047.75;;;16.44;95.86
58967;BME280;44744;51.894;5.080;2023-07-31T01:13:48;101045.52;;;16.45;95.85
58967;BME280;44744;51.894;5.080;2023-07-31T01:14:52;101050.46;;;16.45;96.03
58967;BME280;44744;51.894;5.080;2023-07-31T01:16:03;101050.13;;;16.45;95.82
58967;BME280;44744;51.894;5.080;2023-07-31T01:17:04;101050.42;;;16.46;95.87
58967;BME280;44744;51.894;5.080;2023-07-31T01:18:05;101050.30;;;16.45;95.80
58967;BME280;44744;51.894;5.080;2023-07-31T01:19:06;101050.41;;;16.46;95.64
58967;BME280;44744;51.894;5.080;2023-07-31T01:20:14;101049.45;;;16.47;95.80
58967;BME280;44744;51.894;5.080;2023-07-31T01:26:12;101048.52;;;16.43;95.91
58967;BME280;44744;51.894;5.080;2023-07-31T01:27:14;101049.98;;;16.42;96.23
58967;BME280;44744;51.894;5.080;2023-07-31T01:28:19;101049.73;;;16.41;96.02
58967;BME280;44744;51.894;5.080;2023-07-31T01:29:24;101055.67;;;16.40;96.07
58967;BME280;44744;51.894;5.080;2023-07-31T01:30:32;101055.09;;;16.38;96.17
58967;BME280;44744;51.894;5.080;2023-07-31T01:31:32;101056.10;;;16.36;96.13
58967;BME280;44744;51.894;5.080;2023-07-31T01:32:33;101051.91;;;16.35;96.52
58967;BME280;44744;51.894;5.080;2023-07-31T01:33:35;101058.75;;;16.35;96.64
58967;BME280;44744;51.894;5.080;2023-07-31T01:34:37;101056.23;;;16.32;96.86
58967;BME280;44744;51.894;5.080;2023-07-31T01:35:37;101052.38;;;16.32;97.21
58967;BME280;44744;51.894;5.080;2023-07-31T01:36:40;101058.56;;;16.30;97.83
58967;BME280;44744;51.894;5.080;2023-07-31T01:37:40;101060.36;;;16.28;98.16
58967;BME280;44744;51.894;5.080;2023-07-31T01:38:40;101059.61;;;16.24;98.15
58967;BME280;44744;51.894;5.080;2023-07-31T01:39:41;101057.51;;;16.20;98.57
58967;BME280;44744;51.894;5.080;2023-07-31T01:40:41;101054.34;;;16.17;98.69
58967;BME280;44744;51.894;5.080;2023-07-31T01:41:42;101053.64;;;16.15;98.67
58967;BME280;44744;51.894;5.080;2023-07-31T01:42:46;101058.65;;;16.12;98.62
58967;BME280;44744;51.894;5.080;2023-07-31T01:43:49;101057.67;;;16.11;98.42
58967;BME280;44744;51.894;5.080;2023-07-31T01:44:51;101054.20;;;16.10;98.55
58967;BME280;44744;51.894;5.080;2023-07-31T01:45:52;101052.59;;;16.10;98.39
58967;BME280;44744;51.894;5.080;2023-07-31T01:46:52;101052.77;;;16.10;98.39
58967;BME280;44744;51.894;5.080;2023-07-31T01:47:53;101046.31;;;16.10;98.33
58967;BME280;44744;51.894;5.080;2023-07-31T01:48:53;101045.30;;;16.10;98.40
58967;BME280;44744;51.894;5.080;2023-07-31T01:49:53;101045.61;;;16.10;98.35
58967;BME280;44744;51.894;5.080;2023-07-31T01:50:53;101044.77;;;16.12;98.40
58967;BME280;44744;51.894;5.080;2023-07-31T01:51:56;101040.09;;;16.12;98.65
58967;BME280;44744;51.894;5.080;2023-07-31T01:52:56;101037.61;;;16.12;98.54
58967;BME280;44744;51.894;5.080;2023-07-31T01:53:56;101039.03;;;16.12;98.40
58967;BME280;44744;51.894;5.080;2023-07-31T01:54:56;101040.74;;;16.13;98.24
58967;BME280;44744;51.894;5.080;2023-07-31T01:56:04;101037.36;;;16.13;98.13
58967;BME280;44744;51.894;5.080;2023-07-31T01:57:04;101041.06;;;16.14;98.07
58967;BME280;44744;51.894;5.080;2023-07-31T01:58:05;101041.13;;;16.15;98.36
58967;BME280;44744;51.894;5.080;2023-07-31T01:59:05;101030.37;;;16.16;98.46
58967;BME280;44744;51.894;5.080;2023-07-31T02:00:05;101032.24;;;16.15;98.29
58967;BME280;44744;51.894;5.080;2023-07-31T02:01:06;101031.85;;;16.15;98.18
58967;BME280;44744;51.894;5.080;2023-07-31T02:02:06;101022.77;;;16.15;98.11
58967;BME280;44744;51.894;5.080;2023-07-31T02:03:06;101022.97;;;16.15;98.05
58967;BME280;44744;51.894;5.080;2023-07-31T02:04:14;101019.36;;;16.16;97.79
58967;BME280;44744;51.894;5.080;2023-07-31T02:05:23;101020.42;;;16.15;97.72
58967;BME280;44744;51.894;5.080;2023-07-31T02:06:25;101020.21;;;16.16;97.70
58967;BME280;44744;51.894;5.080;2023-07-31T02:07:25;101020.50;;;16.17;97.55
58967;BME280;44744;51.894;5.080;2023-07-31T02:08:27;101019.55;;;16.17;97.69
58967;BME280;44744;51.894;5.080;2023-07-31T02:09:27;101017.80;;;16.17;97.48
58967;BME280;44744;51.894;5.080;2023-07-31T02:10:29;101013.80;;;16.18;97.61
58967;BME280;44744;51.894;5.080;2023-07-31T02:11:30;101011.55;;;16.17;97.33
58967;BME280;44744;51.894;5.080;2023-07-31T02:12:31;101009.04;;;16.17;97.35
58967;BME280;44744;51.894;5.080;2023-07-31T02:13:36;101008.45;;;16.18;97.25
58967;BME280;44744;51.894;5.080;2023-07-31T02:14:36;101005.93;;;16.18;97.47
58967;BME280;44744;51.894;5.080;2023-07-31T02:15:36;101007.02;;;16.18;97.39
58967;BME280;44744;51.894;5.080;2023-07-31T02:16:38;101003.66;;;16.17;97.18
58967;BME280;44744;51.894;5.080;2023-07-31T02:17:38;101000.23;;;16.18;97.37
58967;BME280;44744;51.894;5.080;2023-07-31T02:18:40;101001.13;;;16.18;97.18
58967;BME280;44744;51.894;5.080;2023-07-31T02:19:44;100998.79;;;16.18;97.04
58967;BME280;44744;51.894;5.080;2023-07-31T02:20:54;101001.45;;;16.18;97.08
58967;BME280;44744;51.894;5.080;2023-07-31T02:21:54;100999.48;;;16.18;96.96
58967;BME280;44744;51.894;5.080;2023-07-31T02:22:54;100998.41;;;16.19;97.02
58967;BME280;44744;51.894;5.080;2023-07-31T02:23:54;100997.61;;;16.20;96.77
58967;BME280;44744;51.894;5.080;2023-07-31T02:24:54;100998.20;;;16.19;97.03
58967;BME280;44744;51.894;5.080;2023-07-31T02:25:55;100998.69;;;16.20;97.04
58967;BME280;44744;51.894;5.080;2023-07-31T02:26:55;100991.86;;;16.20;96.93
58967;BME280;44744;51.894;5.080;2023-07-31T02:27:55;100998.17;;;16.19;96.77
58967;BME280;44744;51.894;5.080;2023-07-31T02:28:56;100995.48;;;16.20;96.71
58967;BME280;44744;51.894;5.080;2023-07-31T02:29:56;100999.71;;;16.20;96.69
58967;BME280;44744;51.894;5.080;2023-07-31T02:30:56;100996.98;;;16.21;96.58
58967;BME280;44744;51.894;5.080;2023-07-31T02:31:56;100998.30;;;16.23;96.80
58967;BME280;44744;51.894;5.080;2023-07-31T02:32:57;100995.87;;;16.21;96.58
58967;BME280;44744;51.894;5.080;2023-07-31T02:33:58;100990.87;;;16.22;96.53
58967;BME280;44744;51.894;5.080;2023-07-31T02:34:58;100993.88;;;16.22;96.38
58967;BME280;44744;51.894;5.080;2023-07-31T02:35:58;100988.77;;;16.21;96.36
58967;BME280;44744;51.894;5.080;2023-07-31T02:36:58;100992.17;;;16.21;96.22
58967;BME280;44744;51.894;5.080;2023-07-31T02:37:59;100991.78;;;16.21;96.20
58967;BME280;44744;51.894;5.080;2023-07-31T02:38:59;100990.55;;;16.21;96.10
58967;BME280;44744;51.894;5.080;2023-07-31T02:40:00;100985.67;;;16.22;95.94
58967;BME280;44744;51.894;5.080;2023-07-31T02:41:01;100988.69;;;16.22;95.86
58967;BME280;44744;51.894;5.080;2023-07-31T02:42:02;100988.26;;;16.23;96.00
58967;BME280;44744;51.894;5.080;2023-07-31T02:43:02;100986.52;;;16.22;95.74
58967;BME280;44744;51.894;5.080;2023-07-31T02:44:03;100986.85;;;16.23;95.76
58967;BME280;44744;51.894;5.080;2023-07-31T02:45:03;100986.48;;;16.23;95.54
58967;BME280;44744;51.894;5.080;2023-07-31T02:46:03;100984.60;;;16.22;95.55
58967;BME280;44744;51.894;5.080;2023-07-31T02:47:06;100985.14;;;16.22;95.51
58967;BME280;44744;51.894;5.080;2023-07-31T02:48:06;100986.32;;;16.23;95.41
58967;BME280;44744;51.894;5.080;2023-07-31T02:49:06;100985.30;;;16.22;95.32
58967;BME280;44744;51.894;5.080;2023-07-31T02:50:07;100979.39;;;16.22;95.25
58967;BME280;44744;51.894;5.080;2023-07-31T02:51:08;100974.64;;;16.21;95.10
58967;BME280;44744;51.894;5.080;2023-07-31T02:52:09;100977.34;;;16.21;94.99
58967;BME280;44744;51.894;5.080;2023-07-31T02:53:09;100972.91;;;16.21;94.92
58967;BME280;44744;51.894;5.080;2023-07-31T02:54:10;100974.29;;;16.21;94.78
58967;BME280;44744;51.894;5.080;2023-07-31T02:55:10;100976.24;;;16.21;95.02
58967;BME280;44744;51.894;5.080;2023-07-31T02:56:10;100975.30;;;16.22;94.82
58967;BME280;44744;51.894;5.080;2023-07-31T02:57:10;100975.47;;;16.22;94.84
58967;BME280;44744;51.894;5.080;2023-07-31T02:58:12;100978.59;;;16.21;94.65
58967;BME280;44744;51.894;5.080;2023-07-31T02:59:12;100976.35;;;16.20;94.42
58967;BME280;44744;51.894;5.080;2023-07-31T03:00:14;100978.20;;;16.19;94.43
58967;BME280;44744;51.894;5.080;2023-07-31T03:01:18;100978.22;;;16.19;94.27
58967;BME280;44744;51.894;5.080;2023-07-31T03:02:18;100980.62;;;16.18;94.27
58967;BME280;44744;51.894;5.080;2023-07-31T03:03:19;100978.50;;;16.17;94.19
58967;BME280;44744;51.894;5.080;2023-07-31T03:04:20;100976.90;;;16.18;94.02
58967;BME280;44744;51.894;5.080;2023-07-31T03:05:20;100972.64;;;16.17;93.96
58967;BME280;44744;51.894;5.080;2023-07-31T03:06:21;100974.10;;;16.17;94.00
58967;BME280;44744;51.894;5.080;2023-07-31T03:07:21;100968.98;;;16.16;93.93
58967;BME280;44744;51.894;5.080;2023-07-31T03:08:21;100966.65;;;16.16;93.83
58967;BME280;44744;51.894;5.080;2023-07-31T03:09:23;100969.48;;;16.17;93.77
58967;BME280;44744;51.894;5.080;2023-07-31T03:10:26;100964.66;;;16.16;93.71
58967;BME280;44744;51.894;5.080;2023-07-31T03:11:26;100965.56;;;16.16;93.60
58967;BME280;44744;51.894;5.080;2023-07-31T03:12:27;100968.80;;;16.16;93.61
58967;BME280;44744;51.894;5.080;2023-07-31T03:13:27;100960.73;;;16.17;93.62
58967;BME280;44744;51.894;5.080;2023-07-31T03:14:27;100963.28;;;16.16;93.46
58967;BME280;44744;51.894;5.080;2023-07-31T03:15:27;100954.91;;;16.16;93.45
58967;BME280;44744;51.894;5.080;2023-07-31T03:16:30;100952.60;;;16.16;93.45
58967;BME280;44744;51.894;5.080;2023-07-31T03:17:30;100955.70;;;16.15;93.35
58967;BME280;44744;51.894;5.080;2023-07-31T03:18:30;100952.47;;;16.15;93.30
58967;BME280;44744;51.894;5.080;2023-07-31T03:19:31;100955.63;;;16.16;93.25
58967;BME280;44744;51.894;5.080;2023-07-31T03:20:32;100954.20;;;16.16;93.26
58967;BME280;44744;51.894;5.080;2023-07-31T03:21:34;100954.20;;;16.16;93.09
58967;BME280;44744;51.894;5.080;2023-07-31T03:22:34;100953.63;;;16.16;93.04
58967;BME280;44744;51.894;5.080;2023-07-31T03:23:34;100953.84;;;16.16;93.11
58967;BME280;44744;51.894;5.080;2023-07-31T03:24:35;100955.22;;;16.16;92.80
58967;BME280;44744;51.894;5.080;2023-07-31T03:25:35;100952.04;;;16.16;92.97
58967;BME280;44744;51.894;5.080;2023-07-31T03:26:35;100953.59;;;16.17;92.96
58967;BME280;44744;51.894;5.080;2023-07-31T03:27:36;100950.35;;;16.17;92.84
58967;BME280;44744;51.894;5.080;2023-07-31T03:28:37;100953.22;;;16.17;92.91
58967;BME280;44744;51.894;5.080;2023-07-31T03:29:37;100953.25;;;16.16;92.77
58967;BME280;44744;51.894;5.080;2023-07-31T03:30:37;100947.77;;;16.16;92.50
58967;BME280;44744;51.894;5.080;2023-07-31T03:31:38;100954.17;;;16.16;92.67
58967;BME280;44744;51.894;5.080;2023-07-31T03:32:38;100946.56;;;16.16;92.52
58967;BME280;44744;51.894;5.080;2023-07-31T03:33:38;100951.39;;;16.16;92.51
58967;BME280;44744;51.894;5.080;2023-07-31T03:34:38;100949.79;;;16.15;92.45
58967;BME280;44744;51.894;5.080;2023-07-31T03:35:38;100947.13;;;16.15;92.30
58967;BME280;44744;51.894;5.080;2023-07-31T03:36:40;100945.70;;;16.15;92.43
58967;BME280;44744;51.894;5.080;2023-07-31T03:37:42;100946.95;;;16.15;92.26
58967;BME280;44744;51.894;5.080;2023-07-31T03:38:45;100944.27;;;16.15;92.29
58967;BME280;44744;51.894;5.080;2023-07-31T03:39:48;100947.70;;;16.15;92.15
58967;BME280;44744;51.894;5.080;2023-07-31T03:40:48;100947.19;;;16.14;92.20
58967;BME280;44744;51.894;5.080;2023-07-31T03:41:50;100946.63;;;16.15;92.15
58967;BME280;44744;51.894;5.080;2023-07-31T03:42:50;100948.04;;;16.15;92.13
58967;BME280;44744;51.894;5.080;2023-07-31T03:43:51;100945.39;;;16.14;92.11
58967;BME280;44744;51.894;5.080;2023-07-31T03:44:51;100946.47;;;16.14;92.14
58967;BME280;44744;51.894;5.080;2023-07-31T03:45:51;100946.65;;;16.14;91.99
58967;BME280;44744;51.894;5.080;2023-07-31T03:46:51;100948.62;;;16.14;92.03
58967;BME280;44744;51.894;5.080;2023-07-31T03:47:52;100946.45;;;16.14;92.00
58967;BME280;44744;51.894;5.080;2023-07-31T03:48:52;100942.05;;;16.14;91.88
58967;BME280;44744;51.894;5.080;2023-07-31T03:49:52;100938.84;;;16.14;91.74
58967;BME280;44744;51.894;5.080;2023-07-31T03:50:53;100941.71;;;16.14;91.71
58967;BME280;44744;51.894;5.080;2023-07-31T03:51:53;100939.52;;;16.14;91.72
58967;BME280;44744;51.894;5.080;2023-07-31T03:52:55;100939.33;;;16.14;91.64
58967;BME280;44744;51.894;5.080;2023-07-31T03:53:58;100935.21;;;16.14;91.58
58967;BME280;44744;51.894;5.080;2023-07-31T03:54:59;100938.60;;;16.15;91.59
58967;BME280;44744;51.894;5.080;2023-07-31T03:56:00;100935.88;;;16.15;91.58
58967;BME280;44744;51.894;5.080;2023-07-31T03:57:00;100943.20;;;16.15;91.49
58967;BME280;44744;51.894;5.080;2023-07-31T03:58:01;100936.06;;;16.15;91.48
58967;BME280;44744;51.894;5.080;2023-07-31T03:59:01;100936.97;;;16.15;91.44
58967;BME280;44744;51.894;5.080;2023-07-31T04:00:01;100939.48;;;16.15;91.45
58967;BME280;44744;51.894;5.080;2023-07-31T04:01:03;100935.55;;;16.15;91.50
58967;BME280;44744;51.894;5.080;2023-07-31T04:02:04;100931.98;;;16.15;91.39
58967;BME280;44744;51.894;5.080;2023-07-31T04:03:04;100930.32;;;16.16;91.34
58967;BME280;44744;51.894;5.080;2023-07-31T04:04:04;100921.56;;;16.16;91.38
58967;BME280;44744;51.894;5.080;2023-07-31T04:05:04;100921.75;;;16.16;91.44
58967;BME280;44744;51.894;5.080;2023-07-31T04:06:07;100919.22;;;16.16;91.22
58967;BME280;44744;51.894;5.080;2023-07-31T04:07:07;100923.27;;;16.16;91.21
58967;BME280;44744;51.894;5.080;2023-07-31T04:08:07;100920.98;;;16.16;91.32
58967;BME280;44744;51.894;5.080;2023-07-31T04:09:07;100920.08;;;16.16;91.31
58967;BME280;44744;51.894;5.080;2023-07-31T04:10:08;100916.32;;;16.17;91.17
58967;BME280;44744;51.894;5.080;2023-07-31T04:11:08;100916.33;;;16.17;91.16
58967;BME280;44744;51.894;5.080;2023-07-31T04:12:08;100910.64;;;16.16;91.16
58967;BME280;44744;51.894;5.080;2023-07-31T04:13:08;100910.13;;;16.16;90.97
58967;BME280;44744;51.894;5.080;2023-07-31T04:14:08;100910.16;;;16.15;91.12
58967;BME280;44744;51.894;5.080;2023-07-31T04:15:09;100914.23;;;16.16;91.15
58967;BME280;44744;51.894;5.080;2023-07-31T04:16:09;100912.82;;;16.16;91.02
58967;BME280;44744;51.894;5.080;2023-07-31T04:17:09;100908.15;;;16.16;91.14
58967;BME280;44744;51.894;5.080;2023-07-31T04:18:09;100909.48;;;16.15;91.10
58967;BME280;44744;51.894;5.080;2023-07-31T04:19:09;100902.73;;;16.14;91.15
58967;BME280;44744;51.894;5.080;2023-07-31T04:20:10;100904.17;;;16.14;91.18
58967;BME280;44744;51.894;5.080;2023-07-31T04:21:11;100904.59;;;16.14;91.29
58967;BME280;44744;51.894;5.080;2023-07-31T04:22:11;100903.02;;;16.13;91.29
58967;BME280;44744;51.894;5.080;2023-07-31T04:23:11;100903.55;;;16.13;91.08
58967;BME280;44744;51.894;5.080;2023-07-31T04:24:12;100905.34;;;16.13;91.22
58967;BME280;44744;51.894;5.080;2023-07-31T04:25:12;100902.39;;;16.12;91.20
58967;BME280;44744;51.894;5.080;2023-07-31T04:26:13;100904.40;;;16.12;91.34
58967;BME280;44744;51.894;5.080;2023-07-31T04:27:13;100902.49;;;16.11;91.36
58967;BME280;44744;51.894;5.080;2023-07-31T04:28:14;100899.80;;;16.11;91.48
58967;BME280;44744;51.894;5.080;2023-07-31T04:29:14;100902.00;;;16.10;91.26
58967;BME280;44744;51.894;5.080;2023-07-31T04:30:16;100900.26;;;16.10;91.50
58967;BME280;44744;51.894;5.080;2023-07-31T04:31:16;100898.50;;;16.10;91.45
58967;BME280;44744;51.894;5.080;2023-07-31T04:32:23;100900.92;;;16.08;91.74
58967;BME280;44744;51.894;5.080;2023-07-31T04:33:23;100900.48;;;16.07;91.80
58967;BME280;44744;51.894;5.080;2023-07-31T04:34:24;100900.75;;;16.06;91.83
58967;BME280;44744;51.894;5.080;2023-07-31T04:35:25;100903.67;;;16.04;91.54
58967;BME280;44744;51.894;5.080;2023-07-31T04:36:25;100902.41;;;16.05;91.99
58967;BME280;44744;51.894;5.080;2023-07-31T04:37:27;100903.63;;;16.03;91.90
58967;BME280;44744;51.894;5.080;2023-07-31T04:38:27;100905.45;;;16.02;91.96
58967;BME280;44744;51.894;5.080;2023-07-31T04:39:28;100909.05;;;16.02;92.03
58967;BME280;44744;51.894;5.080;2023-07-31T04:40:28;100907.66;;;16.01;92.21
58967;BME280;44744;51.894;5.080;2023-07-31T04:41:28;100906.66;;;16.01;92.39
58967;BME280;44744;51.894;5.080;2023-07-31T04:42:29;100905.98;;;16.00;92.38
58967;BME280;44744;51.894;5.080;2023-07-31T04:43:31;100905.54;;;15.99;92.48
58967;BME280;44744;51.894;5.080;2023-07-31T04:44:32;100899.45;;;15.97;92.64
58967;BME280;44744;51.894;5.080;2023-07-31T04:45:32;100903.90;;;15.97;92.61
58967;BME280;44744;51.894;5.080;2023-07-31T04:46:33;100898.55;;;15.97;92.53
58967;BME280;44744;51.894;5.080;2023-07-31T04:47:33;100900.33;;;15.97;92.66
58967;BME280;44744;51.894;5.080;2023-07-31T04:48:38;100899.11;;;15.97;92.70
58967;BME280;44744;51.894;5.080;2023-07-31T04:49:39;100894.98;;;15.95;92.95
58967;BME280;44744;51.894;5.080;2023-07-31T04:50:40;100898.06;;;15.94;93.18
58967;BME280;44744;51.894;5.080;2023-07-31T04:51:40;100894.73;;;15.94;93.59
58967;BME280;44744;51.894;5.080;2023-07-31T04:52:40;100894.35;;;15.91;93.57
58967;BME280;44744;51.894;5.080;2023-07-31T04:53:40;100889.46;;;15.90;93.66
58967;BME280;44744;51.894;5.080;2023-07-31T04:54:42;100890.16;;;15.88;94.02
58967;BME280;44744;51.894;5.080;2023-07-31T04:55:43;100890.45;;;15.86;94.03
58967;BME280;44744;51.894;5.080;2023-07-31T04:56:43;100891.42;;;15.85;94.06
58967;BME280;44744;51.894;5.080;2023-07-31T04:59:02;100890.45;;;15.84;93.92
58967;BME280;44744;51.894;5.080;2023-07-31T05:00:04;100891.91;;;15.84;94.28
58967;BME280;44744;51.894;5.080;2023-07-31T05:01:06;100889.84;;;15.83;94.49
58967;BME280;44744;51.894;5.080;2023-07-31T05:02:07;100890.83;;;15.81;94.37
58967;BME280;44744;51.894;5.080;2023-07-31T05:03:08;100889.02;;;15.82;94.57
58967;BME280;44744;51.894;5.080;2023-07-31T05:04:08;100888.25;;;15.80;94.70
58967;BME280;44744;51.894;5.080;2023-07-31T05:05:09;100888.88;;;15.79;94.74
58967;BME280;44744;51.894;5.080;2023-07-31T05:06:10;100884.96;;;15.79;95.01
58967;BME280;44744;51.894;5.080;2023-07-31T05:07:10;100884.31;;;15.78;95.18
58967;BME280;44744;51.894;5.080;2023-07-31T05:08:11;100881.73;;;15.76;95.17
58967;BME280;44744;51.894;5.080;2023-07-31T05:09:11;100882.30;;;15.76;95.50
58967;BME280;44744;51.894;5.080;2023-07-31T05:10:15;100879.13;;;15.76;95.64
58967;BME280;44744;51.894;5.080;2023-07-31T05:11:15;100881.44;;;15.73;95.84
58967;BME280;44744;51.894;5.080;2023-07-31T05:12:16;100880.70;;;15.74;95.78
58967;BME280;44744;51.894;5.080;2023-07-31T05:13:16;100878.97;;;15.73;95.80
58967;BME280;44744;51.894;5.080;2023-07-31T05:14:16;100878.85;;;15.72;95.69
58967;BME280;44744;51.894;5.080;2023-07-31T05:15:16;100878.78;;;15.73;95.61
58967;BME280;44744;51.894;5.080;2023-07-31T05:16:17;100880.72;;;15.73;95.61
58967;BME280;44744;51.894;5.080;2023-07-31T05:17:18;100878.38;;;15.74;95.92
58967;BME280;44744;51.894;5.080;2023-07-31T05:18:18;100879.10;;;15.74;96.21
58967;BME280;44744;51.894;5.080;2023-07-31T05:19:18;100879.30;;;15.73;96.03
58967;BME280;44744;51.894;5.080;2023-07-31T05:20:20;100874.45;;;15.71;96.39
58967;BME280;44744;51.894;5.080;2023-07-31T05:21:20;100877.38;;;15.70;96.30
58967;BME280;44744;51.894;5.080;2023-07-31T05:22:20;100875.50;;;15.72;96.58
58967;BME280;44744;51.894;5.080;2023-07-31T05:23:21;100870.59;;;15.70;96.52
58967;BME280;44744;51.894;5.080;2023-07-31T05:24:21;100872.75;;;15.70;96.60
58967;BME280;44744;51.894;5.080;2023-07-31T05:25:21;100872.73;;;15.70;96.44
58967;BME280;44744;51.894;5.080;2023-07-31T05:26:21;100869.59;;;15.69;96.50
58967;BME280;44744;51.894;5.080;2023-07-31T05:27:22;100869.56;;;15.70;96.41